sensor_id;sensor_type;location;lat;lon;timestamp;P1;durP1;ratioP1;P2;durP2;ratioP2
42096;SDS011;27754;45.414;11.084;2023-08-31T00:00:46;1.90;;;1.00;;
42096;SDS011;27754;45.414;11.084;2023-08-31T00:03:13;2.15;;;0.70;;
42096;SDS011;27754;45.414;11.084;2023-08-31T00:05:41;3.05;;;0.70;;
42096;SDS011;27754;45.414;11.084;2023-08-31T00:08:09;1.88;;;0.80;;
42096;SDS011;27754;45.414;11.084;2023-08-31T00:10:37;2.65;;;0.98;;
42096;SDS011;27754;45.414;11.084;2023-08-31T00:13:05;2.83;;;1.00;;
42096;SDS011;27754;45.414;11.084;2023-08-31T00:15:35;2.38;;;1.27;;
42096;SDS011;27754;45.414;11.084;2023-08-31T00:18:03;3.85;;;1.00;;
42096;SDS011;27754;45.414;11.084;2023-08-31T00:20:31;2.10;;;1.10;;
42096;SDS011;27754;45.414;11.084;2023-08-31T00:22:59;2.60;;;0.85;;
42096;SDS011;27754;45.414;11.084;2023-08-31T00:25:27;3.10;;;1.30;;
42096;SDS011;27754;45.414;11.084;2023-08-31T00:27:55;1.88;;;0.90;;
42096;SDS011;27754;45.414;11.084;2023-08-31T00:30:24;3.58;;;1.15;;
42096;SDS011;27754;45.414;11.084;2023-08-31T00:32:56;2.20;;;1.10;;
42096;SDS011;27754;45.414;11.084;2023-08-31T00:35:27;3.25;;;0.98;;
42096;SDS011;27754;45.414;11.084;2023-08-31T00:37:55;2.13;;;1.10;;
42096;SDS011;27754;45.414;11.084;2023-08-31T00:40:28;6.22;;;1.23;;
42096;SDS011;27754;45.414;11.084;2023-08-31T00:42:57;1.70;;;1.20;;
42096;SDS011;27754;45.414;11.084;2023-08-31T00:45:24;3.63;;;1.60;;
42096;SDS011;27754;45.414;11.084;2023-08-31T00:47:51;4.07;;;1.08;;
42096;SDS011;27754;45.414;11.084;2023-08-31T00:50:19;5.88;;;1.50;;
42096;SDS011;27754;45.414;11.084;2023-08-31T00:52:46;5.07;;;1.70;;
42096;SDS011;27754;45.414;11.084;2023-08-31T00:55:14;2.67;;;1.38;;
42096;SDS011;27754;45.414;11.084;2023-08-31T00:57:44;2.28;;;1.30;;
42096;SDS011;27754;45.414;11.084;2023-08-31T01:00:13;1.92;;;1.10;;
42096;SDS011;27754;45.414;11.084;2023-08-31T01:07:55;2.60;;;0.80;;
42096;SDS011;27754;45.414;11.084;2023-08-31T01:10:36;1.10;;;0.52;;
42096;SDS011;27754;45.414;11.084;2023-08-31T01:13:11;1.67;;;0.55;;
42096;SDS011;27754;45.414;11.084;2023-08-31T01:15:41;1.67;;;0.60;;
42096;SDS011;27754;45.414;11.084;2023-08-31T01:18:16;5.70;;;0.70;;
42096;SDS011;27754;45.414;11.084;2023-08-31T01:23:52;2.22;;;0.63;;
42096;SDS011;27754;45.414;11.084;2023-08-31T01:26:20;1.75;;;0.50;;
42096;SDS011;27754;45.414;11.084;2023-08-31T01:28:49;1.60;;;0.60;;
42096;SDS011;27754;45.414;11.084;2023-08-31T01:31:17;3.42;;;0.60;;
42096;SDS011;27754;45.414;11.084;2023-08-31T01:33:46;1.45;;;0.73;;
42096;SDS011;27754;45.414;11.084;2023-08-31T01:36:23;1.50;;;0.52;;
42096;SDS011;27754;45.414;11.084;2023-08-31T01:41:46;1.88;;;0.60;;
42096;SDS011;27754;45.414;11.084;2023-08-31T01:44:21;0.60;;;0.40;;
42096;SDS011;27754;45.414;11.084;2023-08-31T01:46:51;3.58;;;1.00;;
42096;SDS011;27754;45.414;11.084;2023-08-31T01:49:23;3.05;;;0.77;;
42096;SDS011;27754;45.414;11.084;2023-08-31T01:51:50;1.65;;;0.82;;
42096;SDS011;27754;45.414;11.084;2023-08-31T01:54:17;2.53;;;1.02;;
42096;SDS011;27754;45.414;11.084;2023-08-31T01:56:44;4.85;;;0.95;;
42096;SDS011;27754;45.414;11.084;2023-08-31T01:59:11;2.38;;;0.90;;
42096;SDS011;27754;45.414;11.084;2023-08-31T02:01:38;1.38;;;1.00;;
42096;SDS011;27754;45.414;11.084;2023-08-31T02:04:06;5.65;;;1.30;;
42096;SDS011;27754;45.414;11.084;2023-08-31T02:06:32;2.13;;;1.10;;
42096;SDS011;27754;45.414;11.084;2023-08-31T02:08:59;2.38;;;1.20;;
42096;SDS011;27754;45.414;11.084;2023-08-31T02:11:26;2.00;;;1.40;;
42096;SDS011;27754;45.414;11.084;2023-08-31T02:13:54;2.90;;;1.30;;
42096;SDS011;27754;45.414;11.084;2023-08-31T02:16:22;2.58;;;1.05;;
42096;SDS011;27754;45.414;11.084;2023-08-31T02:18:49;7.53;;;1.15;;
42096;SDS011;27754;45.414;11.084;2023-08-31T02:21:16;2.60;;;1.17;;
42096;SDS011;27754;45.414;11.084;2023-08-31T02:23:44;2.55;;;1.10;;
42096;SDS011;27754;45.414;11.084;2023-08-31T02:26:11;2.58;;;1.30;;
42096;SDS011;27754;45.414;11.084;2023-08-31T02:28:38;3.63;;;1.40;;
42096;SDS011;27754;45.414;11.084;2023-08-31T02:31:05;1.85;;;1.13;;
42096;SDS011;27754;45.414;11.084;2023-08-31T02:33:32;6.65;;;1.67;;
42096;SDS011;27754;45.414;11.084;2023-08-31T02:35:59;2.28;;;1.08;;
42096;SDS011;27754;45.414;11.084;2023-08-31T02:38:26;1.92;;;0.90;;
42096;SDS011;27754;45.414;11.084;2023-08-31T02:40:53;2.55;;;0.90;;
42096;SDS011;27754;45.414;11.084;2023-08-31T02:43:20;3.67;;;1.02;;
42096;SDS011;27754;45.414;11.084;2023-08-31T02:45:48;2.50;;;1.10;;
42096;SDS011;27754;45.414;11.084;2023-08-31T02:48:15;3.50;;;1.52;;
42096;SDS011;27754;45.414;11.084;2023-08-31T02:50:42;4.35;;;1.55;;
42096;SDS011;27754;45.414;11.084;2023-08-31T02:53:09;2.97;;;1.20;;
42096;SDS011;27754;45.414;11.084;2023-08-31T02:55:37;4.32;;;1.30;;
42096;SDS011;27754;45.414;11.084;2023-08-31T02:58:04;3.65;;;1.38;;
42096;SDS011;27754;45.414;11.084;2023-08-31T03:00:31;5.40;;;1.40;;
42096;SDS011;27754;45.414;11.084;2023-08-31T03:02:59;2.90;;;1.40;;
42096;SDS011;27754;45.414;11.084;2023-08-31T03:05:27;4.68;;;1.15;;
42096;SDS011;27754;45.414;11.084;2023-08-31T03:07:54;9.13;;;1.55;;
42096;SDS011;27754;45.414;11.084;2023-08-31T03:10:23;2.83;;;1.65;;
42096;SDS011;27754;45.414;11.084;2023-08-31T03:12:50;4.78;;;1.40;;
42096;SDS011;27754;45.414;11.084;2023-08-31T03:15:17;5.05;;;1.33;;
42096;SDS011;27754;45.414;11.084;2023-08-31T03:17:45;3.85;;;1.42;;
42096;SDS011;27754;45.414;11.084;2023-08-31T03:20:12;7.43;;;1.80;;
42096;SDS011;27754;45.414;11.084;2023-08-31T03:22:38;3.00;;;1.48;;
42096;SDS011;27754;45.414;11.084;2023-08-31T03:25:06;2.50;;;1.55;;
42096;SDS011;27754;45.414;11.084;2023-08-31T03:27:33;2.30;;;1.60;;
42096;SDS011;27754;45.414;11.084;2023-08-31T03:30:00;3.42;;;2.00;;
42096;SDS011;27754;45.414;11.084;2023-08-31T03:32:28;4.88;;;1.90;;
42096;SDS011;27754;45.414;11.084;2023-08-31T03:34:55;2.90;;;1.92;;
42096;SDS011;27754;45.414;11.084;2023-08-31T03:37:22;4.30;;;1.90;;
42096;SDS011;27754;45.414;11.084;2023-08-31T03:39:49;8.18;;;1.85;;
42096;SDS011;27754;45.414;11.084;2023-08-31T03:42:16;2.70;;;2.00;;
42096;SDS011;27754;45.414;11.084;2023-08-31T03:44:43;4.43;;;1.70;;
42096;SDS011;27754;45.414;11.084;2023-08-31T03:47:10;3.25;;;1.90;;
42096;SDS011;27754;45.414;11.084;2023-08-31T03:49:38;2.63;;;1.63;;
42096;SDS011;27754;45.414;11.084;2023-08-31T03:52:06;3.35;;;1.42;;
42096;SDS011;27754;45.414;11.084;2023-08-31T03:54:33;2.50;;;1.60;;
42096;SDS011;27754;45.414;11.084;2023-08-31T03:57:00;2.08;;;1.35;;
42096;SDS011;27754;45.414;11.084;2023-08-31T03:59:27;2.78;;;1.60;;
42096;SDS011;27754;45.414;11.084;2023-08-31T04:01:56;2.35;;;1.70;;
42096;SDS011;27754;45.414;11.084;2023-08-31T04:04:25;2.28;;;1.30;;
42096;SDS011;27754;45.414;11.084;2023-08-31T04:06:52;4.53;;;1.70;;
42096;SDS011;27754;45.414;11.084;2023-08-31T04:09:19;3.88;;;1.52;;
42096;SDS011;27754;45.414;11.084;2023-08-31T04:11:46;3.53;;;1.70;;
42096;SDS011;27754;45.414;11.084;2023-08-31T04:14:13;4.32;;;1.80;;
42096;SDS011;27754;45.414;11.084;2023-08-31T04:16:40;5.53;;;1.65;;
42096;SDS011;27754;45.414;11.084;2023-08-31T04:19:07;6.15;;;2.00;;
42096;SDS011;27754;45.414;11.084;2023-08-31T04:21:34;3.10;;;1.80;;
42096;SDS011;27754;45.414;11.084;2023-08-31T04:24:02;2.63;;;1.50;;
42096;SDS011;27754;45.414;11.084;2023-08-31T04:26:29;3.70;;;1.55;;
42096;SDS011;27754;45.414;11.084;2023-08-31T04:28:56;6.60;;;1.90;;
42096;SDS011;27754;45.414;11.084;2023-08-31T04:31:23;2.83;;;1.92;;
42096;SDS011;27754;45.414;11.084;2023-08-31T04:33:50;4.45;;;1.88;;
42096;SDS011;27754;45.414;11.084;2023-08-31T04:36:20;4.43;;;1.60;;
42096;SDS011;27754;45.414;11.084;2023-08-31T04:38:48;2.72;;;1.90;;
42096;SDS011;27754;45.414;11.084;2023-08-31T04:41:15;4.70;;;2.00;;
42096;SDS011;27754;45.414;11.084;2023-08-31T04:43:42;3.15;;;2.00;;
42096;SDS011;27754;45.414;11.084;2023-08-31T04:46:09;4.47;;;2.40;;
42096;SDS011;27754;45.414;11.084;2023-08-31T04:48:37;4.68;;;2.03;;
42096;SDS011;27754;45.414;11.084;2023-08-31T04:51:04;4.40;;;1.83;;
42096;SDS011;27754;45.414;11.084;2023-08-31T04:53:31;6.10;;;1.98;;
42096;SDS011;27754;45.414;11.084;2023-08-31T04:55:58;4.47;;;1.92;;
42096;SDS011;27754;45.414;11.084;2023-08-31T04:58:25;3.05;;;1.30;;
42096;SDS011;27754;45.414;11.084;2023-08-31T05:00:52;2.10;;;1.67;;
42096;SDS011;27754;45.414;11.084;2023-08-31T05:03:19;6.28;;;1.63;;
42096;SDS011;27754;45.414;11.084;2023-08-31T05:05:46;4.00;;;1.90;;
42096;SDS011;27754;45.414;11.084;2023-08-31T05:08:13;2.88;;;1.67;;
42096;SDS011;27754;45.414;11.084;2023-08-31T05:10:40;4.75;;;1.50;;
42096;SDS011;27754;45.414;11.084;2023-08-31T05:13:07;2.95;;;1.23;;
42096;SDS011;27754;45.414;11.084;2023-08-31T05:15:35;3.33;;;0.70;;
42096;SDS011;27754;45.414;11.084;2023-08-31T05:18:01;2.00;;;0.70;;
42096;SDS011;27754;45.414;11.084;2023-08-31T05:20:29;4.47;;;0.70;;
42096;SDS011;27754;45.414;11.084;2023-08-31T05:22:56;5.00;;;1.05;;
42096;SDS011;27754;45.414;11.084;2023-08-31T05:25:24;3.42;;;0.70;;
42096;SDS011;27754;45.414;11.084;2023-08-31T05:27:54;2.63;;;0.70;;
42096;SDS011;27754;45.414;11.084;2023-08-31T05:30:21;2.80;;;0.88;;
42096;SDS011;27754;45.414;11.084;2023-08-31T05:32:48;4.63;;;0.95;;
42096;SDS011;27754;45.414;11.084;2023-08-31T05:35:15;5.60;;;1.70;;
42096;SDS011;27754;45.414;11.084;2023-08-31T05:37:42;6.30;;;2.15;;
42096;SDS011;27754;45.414;11.084;2023-08-31T05:40:09;4.85;;;2.15;;
42096;SDS011;27754;45.414;11.084;2023-08-31T05:42:37;9.70;;;3.13;;
42096;SDS011;27754;45.414;11.084;2023-08-31T05:45:04;8.50;;;3.55;;
42096;SDS011;27754;45.414;11.084;2023-08-31T05:47:31;14.73;;;5.10;;
42096;SDS011;27754;45.414;11.084;2023-08-31T05:49:59;13.82;;;5.03;;
42096;SDS011;27754;45.414;11.084;2023-08-31T05:52:26;12.90;;;5.60;;
42096;SDS011;27754;45.414;11.084;2023-08-31T05:54:53;18.45;;;5.53;;
42096;SDS011;27754;45.414;11.084;2023-08-31T05:57:21;15.05;;;3.60;;
42096;SDS011;27754;45.414;11.084;2023-08-31T05:59:48;14.52;;;3.50;;
42096;SDS011;27754;45.414;11.084;2023-08-31T06:02:16;11.65;;;2.78;;
42096;SDS011;27754;45.414;11.084;2023-08-31T06:04:43;13.43;;;2.67;;
42096;SDS011;27754;45.414;11.084;2023-08-31T06:07:10;6.75;;;2.63;;
42096;SDS011;27754;45.414;11.084;2023-08-31T06:09:37;11.95;;;3.15;;
42096;SDS011;27754;45.414;11.084;2023-08-31T06:12:05;9.43;;;1.80;;
42096;SDS011;27754;45.414;11.084;2023-08-31T06:14:33;8.90;;;2.55;;
42096;SDS011;27754;45.414;11.084;2023-08-31T06:17:01;11.55;;;3.03;;
42096;SDS011;27754;45.414;11.084;2023-08-31T06:19:28;12.38;;;2.78;;
42096;SDS011;27754;45.414;11.084;2023-08-31T06:21:55;12.88;;;2.35;;
42096;SDS011;27754;45.414;11.084;2023-08-31T06:24:22;3.50;;;1.70;;
42096;SDS011;27754;45.414;11.084;2023-08-31T06:26:49;3.70;;;2.13;;
42096;SDS011;27754;45.414;11.084;2023-08-31T06:29:16;3.88;;;1.83;;
42096;SDS011;27754;45.414;11.084;2023-08-31T06:31:43;3.22;;;1.90;;
42096;SDS011;27754;45.414;11.084;2023-08-31T06:34:10;5.28;;;2.05;;
42096;SDS011;27754;45.414;11.084;2023-08-31T06:36:37;4.45;;;1.90;;
42096;SDS011;27754;45.414;11.084;2023-08-31T06:39:05;10.90;;;2.17;;
42096;SDS011;27754;45.414;11.084;2023-08-31T06:41:32;9.30;;;1.85;;
42096;SDS011;27754;45.414;11.084;2023-08-31T06:44:01;7.15;;;2.45;;
42096;SDS011;27754;45.414;11.084;2023-08-31T06:46:28;5.80;;;2.50;;
42096;SDS011;27754;45.414;11.084;2023-08-31T06:48:56;9.90;;;2.35;;
42096;SDS011;27754;45.414;11.084;2023-08-31T06:51:23;7.78;;;2.45;;
42096;SDS011;27754;45.414;11.084;2023-08-31T06:53:51;6.68;;;2.20;;
42096;SDS011;27754;45.414;11.084;2023-08-31T06:56:18;6.90;;;2.70;;
42096;SDS011;27754;45.414;11.084;2023-08-31T06:58:45;10.27;;;2.42;;
42096;SDS011;27754;45.414;11.084;2023-08-31T07:01:12;8.85;;;2.55;;
42096;SDS011;27754;45.414;11.084;2023-08-31T07:03:39;7.25;;;2.90;;
42096;SDS011;27754;45.414;11.084;2023-08-31T07:06:07;8.07;;;2.42;;
42096;SDS011;27754;45.414;11.084;2023-08-31T07:08:35;9.82;;;2.95;;
42096;SDS011;27754;45.414;11.084;2023-08-31T07:11:03;7.03;;;2.88;;
42096;SDS011;27754;45.414;11.084;2023-08-31T07:13:30;7.78;;;3.20;;
42096;SDS011;27754;45.414;11.084;2023-08-31T07:15:57;6.95;;;2.88;;
42096;SDS011;27754;45.414;11.084;2023-08-31T07:18:24;5.78;;;2.75;;
42096;SDS011;27754;45.414;11.084;2023-08-31T07:20:51;7.18;;;3.03;;
42096;SDS011;27754;45.414;11.084;2023-08-31T07:23:18;10.73;;;4.13;;
42096;SDS011;27754;45.414;11.084;2023-08-31T07:25:46;8.35;;;4.50;;
42096;SDS011;27754;45.414;11.084;2023-08-31T07:28:13;7.15;;;3.60;;
42096;SDS011;27754;45.414;11.084;2023-08-31T07:30:40;6.60;;;3.90;;
42096;SDS011;27754;45.414;11.084;2023-08-31T07:33:07;7.65;;;3.05;;
42096;SDS011;27754;45.414;11.084;2023-08-31T07:35:54;5.28;;;3.47;;
42096;SDS011;27754;45.414;11.084;2023-08-31T07:38:23;5.57;;;3.00;;
42096;SDS011;27754;45.414;11.084;2023-08-31T07:40:50;5.95;;;3.25;;
42096;SDS011;27754;45.414;11.084;2023-08-31T07:43:18;4.47;;;2.53;;
42096;SDS011;27754;45.414;11.084;2023-08-31T07:45:45;5.88;;;2.83;;
42096;SDS011;27754;45.414;11.084;2023-08-31T07:48:12;7.50;;;2.85;;
42096;SDS011;27754;45.414;11.084;2023-08-31T07:50:42;4.63;;;3.25;;
42096;SDS011;27754;45.414;11.084;2023-08-31T07:53:10;7.45;;;3.67;;
42096;SDS011;27754;45.414;11.084;2023-08-31T07:55:39;5.85;;;3.40;;
42096;SDS011;27754;45.414;11.084;2023-08-31T07:58:06;3.13;;;2.22;;
42096;SDS011;27754;45.414;11.084;2023-08-31T08:00:33;7.30;;;3.00;;
42096;SDS011;27754;45.414;11.084;2023-08-31T08:03:00;5.20;;;2.92;;
42096;SDS011;27754;45.414;11.084;2023-08-31T08:05:27;3.85;;;2.85;;
42096;SDS011;27754;45.414;11.084;2023-08-31T08:07:54;4.43;;;3.08;;
42096;SDS011;27754;45.414;11.084;2023-08-31T08:10:21;7.80;;;3.30;;
42096;SDS011;27754;45.414;11.084;2023-08-31T08:12:48;9.45;;;2.80;;
42096;SDS011;27754;45.414;11.084;2023-08-31T08:15:15;5.03;;;2.80;;
42096;SDS011;27754;45.414;11.084;2023-08-31T08:17:42;6.13;;;3.20;;
42096;SDS011;27754;45.414;11.084;2023-08-31T08:20:09;4.80;;;2.65;;
42096;SDS011;27754;45.414;11.084;2023-08-31T08:22:37;5.22;;;2.65;;
42096;SDS011;27754;45.414;11.084;2023-08-31T08:25:04;7.30;;;3.10;;
42096;SDS011;27754;45.414;11.084;2023-08-31T08:27:32;4.80;;;2.72;;
42096;SDS011;27754;45.414;11.084;2023-08-31T08:29:59;5.55;;;2.70;;
42096;SDS011;27754;45.414;11.084;2023-08-31T08:32:26;4.25;;;2.20;;
42096;SDS011;27754;45.414;11.084;2023-08-31T08:34:53;4.80;;;2.47;;
42096;SDS011;27754;45.414;11.084;2023-08-31T08:37:21;7.68;;;2.10;;
42096;SDS011;27754;45.414;11.084;2023-08-31T08:39:48;3.88;;;1.70;;
42096;SDS011;27754;45.414;11.084;2023-08-31T08:42:19;3.38;;;1.92;;
42096;SDS011;27754;45.414;11.084;2023-08-31T08:44:50;4.20;;;2.35;;
42096;SDS011;27754;45.414;11.084;2023-08-31T08:47:18;2.97;;;1.20;;
42096;SDS011;27754;45.414;11.084;2023-08-31T08:49:45;2.05;;;1.33;;
42096;SDS011;27754;45.414;11.084;2023-08-31T08:52:14;3.90;;;1.00;;
42096;SDS011;27754;45.414;11.084;2023-08-31T08:54:42;1.70;;;0.50;;
42096;SDS011;27754;45.414;11.084;2023-08-31T08:57:09;3.10;;;1.33;;
42096;SDS011;27754;45.414;11.084;2023-08-31T08:59:36;2.25;;;1.00;;
42096;SDS011;27754;45.414;11.084;2023-08-31T09:02:02;1.35;;;0.40;;
42096;SDS011;27754;45.414;11.084;2023-08-31T09:04:31;3.03;;;0.98;;
42096;SDS011;27754;45.414;11.084;2023-08-31T09:06:58;1.45;;;0.70;;
42096;SDS011;27754;45.414;11.084;2023-08-31T09:09:25;2.20;;;0.80;;
42096;SDS011;27754;45.414;11.084;2023-08-31T09:11:52;2.55;;;0.90;;
42096;SDS011;27754;45.414;11.084;2023-08-31T09:14:21;2.80;;;1.30;;
42096;SDS011;27754;45.414;11.084;2023-08-31T09:16:49;2.25;;;1.30;;
42096;SDS011;27754;45.414;11.084;2023-08-31T09:19:21;4.25;;;1.20;;
42096;SDS011;27754;45.414;11.084;2023-08-31T09:21:50;3.45;;;1.10;;
42096;SDS011;27754;45.414;11.084;2023-08-31T09:24:18;3.20;;;1.02;;
42096;SDS011;27754;45.414;11.084;2023-08-31T09:26:46;2.83;;;1.10;;
42096;SDS011;27754;45.414;11.084;2023-08-31T09:29:15;20.95;;;3.80;;
42096;SDS011;27754;45.414;11.084;2023-08-31T09:31:43;4.60;;;1.60;;
42096;SDS011;27754;45.414;11.084;2023-08-31T09:34:11;4.10;;;1.90;;
42096;SDS011;27754;45.414;11.084;2023-08-31T09:36:38;1.98;;;1.30;;
42096;SDS011;27754;45.414;11.084;2023-08-31T09:39:06;2.67;;;1.50;;
42096;SDS011;27754;45.414;11.084;2023-08-31T09:41:33;4.22;;;2.05;;
42096;SDS011;27754;45.414;11.084;2023-08-31T09:44:16;3.10;;;1.50;;
42096;SDS011;27754;45.414;11.084;2023-08-31T09:46:45;2.42;;;1.48;;
42096;SDS011;27754;45.414;11.084;2023-08-31T09:49:13;4.32;;;1.20;;
42096;SDS011;27754;45.414;11.084;2023-08-31T09:51:45;1.65;;;0.95;;
42096;SDS011;27754;45.414;11.084;2023-08-31T09:54:15;2.92;;;1.00;;
42096;SDS011;27754;45.414;11.084;2023-08-31T09:56:43;1.30;;;0.82;;
42096;SDS011;27754;45.414;11.084;2023-08-31T09:59:13;1.45;;;0.85;;
42096;SDS011;27754;45.414;11.084;2023-08-31T10:01:46;2.40;;;1.00;;
42096;SDS011;27754;45.414;11.084;2023-08-31T10:04:14;3.15;;;1.17;;
42096;SDS011;27754;45.414;11.084;2023-08-31T10:06:43;4.82;;;1.20;;
42096;SDS011;27754;45.414;11.084;2023-08-31T10:09:11;4.10;;;1.52;;
42096;SDS011;27754;45.414;11.084;2023-08-31T10:11:39;4.05;;;1.27;;
42096;SDS011;27754;45.414;11.084;2023-08-31T10:14:08;2.85;;;1.33;;
42096;SDS011;27754;45.414;11.084;2023-08-31T10:16:39;4.68;;;1.20;;
42096;SDS011;27754;45.414;11.084;2023-08-31T10:19:07;4.28;;;1.25;;
42096;SDS011;27754;45.414;11.084;2023-08-31T10:21:35;3.08;;;1.52;;
42096;SDS011;27754;45.414;11.084;2023-08-31T10:24:03;5.70;;;2.22;;
42096;SDS011;27754;45.414;11.084;2023-08-31T10:26:31;2.95;;;1.80;;
42096;SDS011;27754;45.414;11.084;2023-08-31T10:28:59;6.65;;;2.20;;
42096;SDS011;27754;45.414;11.084;2023-08-31T10:31:32;3.30;;;2.50;;
42096;SDS011;27754;45.414;11.084;2023-08-31T10:36:34;2.97;;;2.00;;
42096;SDS011;27754;45.414;11.084;2023-08-31T10:41:51;3.85;;;1.60;;
42096;SDS011;27754;45.414;11.084;2023-08-31T10:44:21;3.47;;;1.70;;
42096;SDS011;27754;45.414;11.084;2023-08-31T10:46:49;2.80;;;2.05;;
42096;SDS011;27754;45.414;11.084;2023-08-31T10:49:21;4.28;;;1.77;;
42096;SDS011;27754;45.414;11.084;2023-08-31T10:51:50;3.20;;;1.85;;
42096;SDS011;27754;45.414;11.084;2023-08-31T10:54:25;4.20;;;2.40;;
42096;SDS011;27754;45.414;11.084;2023-08-31T10:57:03;4.72;;;2.72;;
42096;SDS011;27754;45.414;11.084;2023-08-31T10:59:44;4.63;;;2.90;;
42096;SDS011;27754;45.414;11.084;2023-08-31T11:07:38;3.97;;;2.50;;
42096;SDS011;27754;45.414;11.084;2023-08-31T11:10:20;5.55;;;2.13;;
42096;SDS011;27754;45.414;11.084;2023-08-31T11:12:50;4.90;;;2.50;;
42096;SDS011;27754;45.414;11.084;2023-08-31T11:15:22;3.67;;;2.50;;
42096;SDS011;27754;45.414;11.084;2023-08-31T11:17:54;3.90;;;2.28;;
42096;SDS011;27754;45.414;11.084;2023-08-31T11:20:23;3.83;;;1.60;;
42096;SDS011;27754;45.414;11.084;2023-08-31T11:23:00;4.72;;;1.60;;
42096;SDS011;27754;45.414;11.084;2023-08-31T11:25:27;3.72;;;1.40;;
42096;SDS011;27754;45.414;11.084;2023-08-31T11:27:58;3.65;;;1.85;;
42096;SDS011;27754;45.414;11.084;2023-08-31T11:30:32;3.80;;;1.98;;
42096;SDS011;27754;45.414;11.084;2023-08-31T11:33:04;3.53;;;1.98;;
42096;SDS011;27754;45.414;11.084;2023-08-31T11:35:36;6.25;;;2.00;;
42096;SDS011;27754;45.414;11.084;2023-08-31T11:38:04;4.55;;;1.30;;
42096;SDS011;27754;45.414;11.084;2023-08-31T11:40:32;3.38;;;2.13;;
42096;SDS011;27754;45.414;11.084;2023-08-31T11:42:59;3.47;;;1.52;;
42096;SDS011;27754;45.414;11.084;2023-08-31T11:45:26;2.60;;;1.60;;
42096;SDS011;27754;45.414;11.084;2023-08-31T11:47:54;3.58;;;1.48;;
42096;SDS011;27754;45.414;11.084;2023-08-31T11:50:23;4.30;;;1.65;;
42096;SDS011;27754;45.414;11.084;2023-08-31T11:52:51;2.80;;;2.00;;
42096;SDS011;27754;45.414;11.084;2023-08-31T11:55:19;2.95;;;1.85;;
42096;SDS011;27754;45.414;11.084;2023-08-31T11:57:50;4.53;;;1.67;;
42096;SDS011;27754;45.414;11.084;2023-08-31T12:00:18;4.82;;;1.80;;
42096;SDS011;27754;45.414;11.084;2023-08-31T12:02:57;3.38;;;1.60;;
42096;SDS011;27754;45.414;11.084;2023-08-31T12:05:28;3.13;;;1.83;;
42096;SDS011;27754;45.414;11.084;2023-08-31T12:07:55;5.18;;;1.83;;
42096;SDS011;27754;45.414;11.084;2023-08-31T12:10:24;3.90;;;1.60;;
42096;SDS011;27754;45.414;11.084;2023-08-31T12:12:52;4.60;;;2.20;;
42096;SDS011;27754;45.414;11.084;2023-08-31T12:15:21;4.45;;;2.10;;
42096;SDS011;27754;45.414;11.084;2023-08-31T12:17:51;5.38;;;2.80;;
42096;SDS011;27754;45.414;11.084;2023-08-31T12:20:24;4.05;;;2.03;;
42096;SDS011;27754;45.414;11.084;2023-08-31T12:22:53;3.85;;;2.15;;
42096;SDS011;27754;45.414;11.084;2023-08-31T12:25:23;3.22;;;1.77;;
42096;SDS011;27754;45.414;11.084;2023-08-31T12:27:50;3.63;;;1.95;;
42096;SDS011;27754;45.414;11.084;2023-08-31T12:30:17;2.92;;;2.20;;
42096;SDS011;27754;45.414;11.084;2023-08-31T12:32:44;3.13;;;1.90;;
42096;SDS011;27754;45.414;11.084;2023-08-31T12:35:11;4.03;;;2.15;;
42096;SDS011;27754;45.414;11.084;2023-08-31T12:37:38;3.58;;;1.90;;
42096;SDS011;27754;45.414;11.084;2023-08-31T12:40:05;5.47;;;2.13;;
42096;SDS011;27754;45.414;11.084;2023-08-31T12:42:35;6.82;;;2.00;;
42096;SDS011;27754;45.414;11.084;2023-08-31T12:45:03;2.03;;;1.30;;
42096;SDS011;27754;45.414;11.084;2023-08-31T12:47:32;5.03;;;1.80;;
42096;SDS011;27754;45.414;11.084;2023-08-31T12:49:59;4.43;;;1.80;;
42096;SDS011;27754;45.414;11.084;2023-08-31T12:52:28;6.43;;;2.30;;
42096;SDS011;27754;45.414;11.084;2023-08-31T12:54:55;2.47;;;1.90;;
42096;SDS011;27754;45.414;11.084;2023-08-31T12:57:22;3.08;;;1.35;;
42096;SDS011;27754;45.414;11.084;2023-08-31T12:59:49;4.18;;;1.60;;
42096;SDS011;27754;45.414;11.084;2023-08-31T13:02:16;5.20;;;1.80;;
42096;SDS011;27754;45.414;11.084;2023-08-31T13:04:46;4.53;;;1.60;;
42096;SDS011;27754;45.414;11.084;2023-08-31T13:07:13;4.43;;;1.73;;
42096;SDS011;27754;45.414;11.084;2023-08-31T13:09:40;3.83;;;1.70;;
42096;SDS011;27754;45.414;11.084;2023-08-31T13:12:07;3.95;;;1.73;;
42096;SDS011;27754;45.414;11.084;2023-08-31T13:14:35;3.92;;;1.80;;
42096;SDS011;27754;45.414;11.084;2023-08-31T13:17:02;2.65;;;1.38;;
42096;SDS011;27754;45.414;11.084;2023-08-31T13:19:30;5.70;;;1.55;;
42096;SDS011;27754;45.414;11.084;2023-08-31T13:21:57;3.40;;;1.73;;
42096;SDS011;27754;45.414;11.084;2023-08-31T13:24:24;2.85;;;1.60;;
42096;SDS011;27754;45.414;11.084;2023-08-31T13:26:51;3.17;;;1.48;;
42096;SDS011;27754;45.414;11.084;2023-08-31T13:29:18;4.75;;;2.10;;
42096;SDS011;27754;45.414;11.084;2023-08-31T13:31:45;5.50;;;1.88;;
42096;SDS011;27754;45.414;11.084;2023-08-31T13:34:12;4.65;;;1.83;;
42096;SDS011;27754;45.414;11.084;2023-08-31T13:36:40;3.72;;;1.80;;
42096;SDS011;27754;45.414;11.084;2023-08-31T13:39:07;3.88;;;1.60;;
42096;SDS011;27754;45.414;11.084;2023-08-31T13:41:34;2.67;;;1.23;;
42096;SDS011;27754;45.414;11.084;2023-08-31T13:44:02;5.07;;;1.50;;
42096;SDS011;27754;45.414;11.084;2023-08-31T13:46:29;3.53;;;1.80;;
42096;SDS011;27754;45.414;11.084;2023-08-31T13:48:58;4.22;;;1.48;;
42096;SDS011;27754;45.414;11.084;2023-08-31T13:51:25;5.20;;;1.50;;
42096;SDS011;27754;45.414;11.084;2023-08-31T13:53:52;2.55;;;0.95;;
42096;SDS011;27754;45.414;11.084;2023-08-31T13:56:19;5.45;;;2.22;;
42096;SDS011;27754;45.414;11.084;2023-08-31T13:58:46;4.00;;;2.20;;
42096;SDS011;27754;45.414;11.084;2023-08-31T14:01:13;7.25;;;2.45;;
42096;SDS011;27754;45.414;11.084;2023-08-31T14:03:40;4.95;;;2.00;;
42096;SDS011;27754;45.414;11.084;2023-08-31T14:06:10;5.00;;;1.73;;
42096;SDS011;27754;45.414;11.084;2023-08-31T14:08:39;2.90;;;1.70;;
42096;SDS011;27754;45.414;11.084;2023-08-31T14:11:07;3.58;;;1.80;;
42096;SDS011;27754;45.414;11.084;2023-08-31T14:13:33;6.28;;;2.35;;
42096;SDS011;27754;45.414;11.084;2023-08-31T14:16:01;3.88;;;1.98;;
42096;SDS011;27754;45.414;11.084;2023-08-31T14:18:31;5.40;;;2.00;;
42096;SDS011;27754;45.414;11.084;2023-08-31T14:20:59;5.97;;;2.05;;
42096;SDS011;27754;45.414;11.084;2023-08-31T14:23:29;3.80;;;1.30;;
42096;SDS011;27754;45.414;11.084;2023-08-31T14:26:03;6.30;;;1.58;;
42096;SDS011;27754;45.414;11.084;2023-08-31T14:28:30;3.45;;;1.50;;
42096;SDS011;27754;45.414;11.084;2023-08-31T14:30:57;4.28;;;1.35;;
42096;SDS011;27754;45.414;11.084;2023-08-31T14:33:31;4.55;;;1.50;;
42096;SDS011;27754;45.414;11.084;2023-08-31T14:35:58;2.58;;;1.20;;
42096;SDS011;27754;45.414;11.084;2023-08-31T14:38:25;6.20;;;1.63;;
42096;SDS011;27754;45.414;11.084;2023-08-31T14:40:53;4.43;;;1.98;;
42096;SDS011;27754;45.414;11.084;2023-08-31T14:43:20;5.38;;;1.63;;
42096;SDS011;27754;45.414;11.084;2023-08-31T14:45:48;3.45;;;1.50;;
42096;SDS011;27754;45.414;11.084;2023-08-31T14:48:15;3.95;;;1.80;;
42096;SDS011;27754;45.414;11.084;2023-08-31T14:50:42;4.80;;;1.52;;
42096;SDS011;27754;45.414;11.084;2023-08-31T14:53:10;3.00;;;1.40;;
42096;SDS011;27754;45.414;11.084;2023-08-31T14:55:38;3.67;;;1.60;;
42096;SDS011;27754;45.414;11.084;2023-08-31T14:58:04;4.53;;;2.00;;
42096;SDS011;27754;45.414;11.084;2023-08-31T15:00:32;2.90;;;1.70;;